s-Heerenberg, Netherlands
Current Conditions -  °F | °C
As of 1:50 PM on Tuesday 21 Oct 2014 (Local Time) from EDLV Reporting Station
Broken Clouds Broken Clouds  
Wind Chill: 54°   Ceiling: 1100
Heat Index: 54°   Visibility: 6mi
Dew Point: 54°   Wind: 21mph
Humidity: 100%   Direction: 200°SSW
Pressure: 29.53"   Gusts: NA
Location:  51.88°N, 6.26°E
Report Text: EDLV 211150Z 20018KT 170V230 9999 BKN011 12/12 Q1000
Loading
Personal Weather Stations






























Interactive Weather Map
Tropical Storm Tracking
New forecast layout! Learn more

10-Day Weather Forecast

Advertisements
Track Severe Weather on mobile